<?xml version="1.0" encoding="utf-8"?>
<gpx xmlns:xsi="http://www.w3.org/2001/XMLSchema-instance" xmlns:xsd="http://www.w3.org/2001/XMLSchema" version="1.1" creator="Shapelink.com" xmlns="http://www.topografix.com/GPX/1/1" xmlns:gpxtpx="http://www.garmin.com/xmlschemas/TrackPointExtension/v1">
  <metadata>
    <name>Gåing 4.00 km, 2012-03-27</name>
    <desc></desc>
    <author><name>Mikael Blom</name></author> 
    <time>2012-03-27T15:31:37Z</time>
  </metadata>
  <trk>
    <name>Gåing 4.00 km, 2012-03-27</name>
    <trkseg>
      <trkpt lat="59.9789965" lon="17.7393351">
        <ele>47.2418</ele>
        <time>2012-03-27T15:31:37Z</time>
      </trkpt>
      <trkpt lat="59.9790748" lon="17.7392878">
        <ele>47.7225</ele>
        <time>2012-03-27T15:31:44Z</time>
      </trkpt>
      <trkpt lat="59.9791029" lon="17.7392735">
        <ele>48.2034</ele>
        <time>2012-03-27T15:31:46Z</time>
      </trkpt>
      <trkpt lat="59.9792772" lon="17.73917">
        <ele>51.5679</ele>
        <time>2012-03-27T15:31:58Z</time>
      </trkpt>
      <trkpt lat="59.979371" lon="17.7391207">
        <ele>53.9712</ele>
        <time>2012-03-27T15:32:05Z</time>
      </trkpt>
      <trkpt lat="59.9793852" lon="17.7391165">
        <ele>54.4518</ele>
        <time>2012-03-27T15:32:06Z</time>
      </trkpt>
      <trkpt lat="59.9794599" lon="17.7390221">
        <ele>54.4518</ele>
        <time>2012-03-27T15:32:11Z</time>
      </trkpt>
      <trkpt lat="59.9795946" lon="17.7389398">
        <ele>55.4131</ele>
        <time>2012-03-27T15:32:16Z</time>
      </trkpt>
      <trkpt lat="59.9797457" lon="17.7388371">
        <ele>55.4131</ele>
        <time>2012-03-27T15:32:22Z</time>
      </trkpt>
      <trkpt lat="59.9798985" lon="17.7387114">
        <ele>59.2584</ele>
        <time>2012-03-27T15:32:28Z</time>
      </trkpt>
      <trkpt lat="59.9800113" lon="17.7387084">
        <ele>61.181</ele>
        <time>2012-03-27T15:32:32Z</time>
      </trkpt>
      <trkpt lat="59.9801197" lon="17.7387197">
        <ele>61.6617</ele>
        <time>2012-03-27T15:32:36Z</time>
      </trkpt>
      <trkpt lat="59.9802801" lon="17.7386954">
        <ele>59.7391</ele>
        <time>2012-03-27T15:32:42Z</time>
      </trkpt>
      <trkpt lat="59.9804088" lon="17.738674">
        <ele>59.2584</ele>
        <time>2012-03-27T15:32:48Z</time>
      </trkpt>
      <trkpt lat="59.980534" lon="17.7386244">
        <ele>60.2197</ele>
        <time>2012-03-27T15:32:53Z</time>
      </trkpt>
      <trkpt lat="59.9805513" lon="17.7386211">
        <ele>60.2197</ele>
        <time>2012-03-27T15:32:54Z</time>
      </trkpt>
      <trkpt lat="59.9806425" lon="17.738587">
        <ele>60.2197</ele>
        <time>2012-03-27T15:33:00Z</time>
      </trkpt>
      <trkpt lat="59.9807569" lon="17.7385994">
        <ele>63.5844</ele>
        <time>2012-03-27T15:33:07Z</time>
      </trkpt>
      <trkpt lat="59.9808509" lon="17.7385623">
        <ele>66.4683</ele>
        <time>2012-03-27T15:33:13Z</time>
      </trkpt>
      <trkpt lat="59.9809422" lon="17.7385359">
        <ele>64.5457</ele>
        <time>2012-03-27T15:33:19Z</time>
      </trkpt>
      <trkpt lat="59.9810563" lon="17.7385255">
        <ele>65.0264</ele>
        <time>2012-03-27T15:33:26Z</time>
      </trkpt>
      <trkpt lat="59.9811671" lon="17.7385203">
        <ele>66.4683</ele>
        <time>2012-03-27T15:33:33Z</time>
      </trkpt>
      <trkpt lat="59.9812734" lon="17.7384642">
        <ele>65.9877</ele>
        <time>2012-03-27T15:33:40Z</time>
      </trkpt>
      <trkpt lat="59.981391" lon="17.7384141">
        <ele>75.1202</ele>
        <time>2012-03-27T15:33:45Z</time>
      </trkpt>
      <trkpt lat="59.9815205" lon="17.738379">
        <ele>83.2914</ele>
        <time>2012-03-27T15:33:52Z</time>
      </trkpt>
      <trkpt lat="59.9816239" lon="17.7383462">
        <ele>86.1753</ele>
        <time>2012-03-27T15:33:58Z</time>
      </trkpt>
      <trkpt lat="59.9816468" lon="17.7383826">
        <ele>76.5621</ele>
        <time>2012-03-27T15:34:04Z</time>
      </trkpt>
      <trkpt lat="59.9816897" lon="17.7383897">
        <ele>74.6395</ele>
        <time>2012-03-27T15:34:08Z</time>
      </trkpt>
      <trkpt lat="59.9817766" lon="17.7383456">
        <ele>70.3135</ele>
        <time>2012-03-27T15:34:15Z</time>
      </trkpt>
      <trkpt lat="59.9817888" lon="17.7383388">
        <ele>69.3523</ele>
        <time>2012-03-27T15:34:16Z</time>
      </trkpt>
      <trkpt lat="59.9818458" lon="17.7383012">
        <ele>69.3523</ele>
        <time>2012-03-27T15:34:20Z</time>
      </trkpt>
      <trkpt lat="59.9819037" lon="17.7382547">
        <ele>62.6229</ele>
        <time>2012-03-27T15:34:26Z</time>
      </trkpt>
      <trkpt lat="59.9819152" lon="17.7382613">
        <ele>62.6229</ele>
        <time>2012-03-27T15:34:27Z</time>
      </trkpt>
      <trkpt lat="59.9819804" lon="17.7382055">
        <ele>58.7777</ele>
        <time>2012-03-27T15:34:34Z</time>
      </trkpt>
      <trkpt lat="59.982098" lon="17.7381585">
        <ele>66.4683</ele>
        <time>2012-03-27T15:34:40Z</time>
      </trkpt>
      <trkpt lat="59.9822404" lon="17.7380801">
        <ele>73.6782</ele>
        <time>2012-03-27T15:34:46Z</time>
      </trkpt>
      <trkpt lat="59.9823402" lon="17.7380406">
        <ele>77.0428</ele>
        <time>2012-03-27T15:34:52Z</time>
      </trkpt>
      <trkpt lat="59.9824299" lon="17.738013">
        <ele>73.6782</ele>
        <time>2012-03-27T15:34:57Z</time>
      </trkpt>
      <trkpt lat="59.9824433" lon="17.7380059">
        <ele>73.1976</ele>
        <time>2012-03-27T15:34:58Z</time>
      </trkpt>
      <trkpt lat="59.9825084" lon="17.7379852">
        <ele>68.8716</ele>
        <time>2012-03-27T15:35:04Z</time>
      </trkpt>
      <trkpt lat="59.9825112" lon="17.7379997">
        <ele>67.4297</ele>
        <time>2012-03-27T15:35:05Z</time>
      </trkpt>
      <trkpt lat="59.9826124" lon="17.7380049">
        <ele>63.1036</ele>
        <time>2012-03-27T15:35:13Z</time>
      </trkpt>
      <trkpt lat="59.9826827" lon="17.7380282">
        <ele>62.6229</ele>
        <time>2012-03-27T15:35:19Z</time>
      </trkpt>
      <trkpt lat="59.9827938" lon="17.7380431">
        <ele>64.5457</ele>
        <time>2012-03-27T15:35:25Z</time>
      </trkpt>
      <trkpt lat="59.9828408" lon="17.738066">
        <ele>65.5071</ele>
        <time>2012-03-27T15:35:28Z</time>
      </trkpt>
      <trkpt lat="59.9828627" lon="17.7380846">
        <ele>65.0264</ele>
        <time>2012-03-27T15:35:30Z</time>
      </trkpt>
      <trkpt lat="59.9828828" lon="17.7380971">
        <ele>65.9877</ele>
        <time>2012-03-27T15:35:32Z</time>
      </trkpt>
      <trkpt lat="59.9829398" lon="17.7381267">
        <ele>66.4683</ele>
        <time>2012-03-27T15:35:37Z</time>
      </trkpt>
      <trkpt lat="59.9830548" lon="17.7380986">
        <ele>67.4297</ele>
        <time>2012-03-27T15:35:44Z</time>
      </trkpt>
      <trkpt lat="59.9830713" lon="17.7380867">
        <ele>66.949</ele>
        <time>2012-03-27T15:35:46Z</time>
      </trkpt>
      <trkpt lat="59.9831672" lon="17.7380686">
        <ele>66.949</ele>
        <time>2012-03-27T15:35:53Z</time>
      </trkpt>
      <trkpt lat="59.9831822" lon="17.7380638">
        <ele>67.4297</ele>
        <time>2012-03-27T15:35:54Z</time>
      </trkpt>
      <trkpt lat="59.983289" lon="17.7380283">
        <ele>69.3523</ele>
        <time>2012-03-27T15:36:00Z</time>
      </trkpt>
      <trkpt lat="59.9833671" lon="17.7380125">
        <ele>68.8716</ele>
        <time>2012-03-27T15:36:06Z</time>
      </trkpt>
      <trkpt lat="59.98342" lon="17.738034">
        <ele>71.7555</ele>
        <time>2012-03-27T15:36:11Z</time>
      </trkpt>
      <trkpt lat="59.9835033" lon="17.7379924">
        <ele>75.1202</ele>
        <time>2012-03-27T15:36:15Z</time>
      </trkpt>
      <trkpt lat="59.9836282" lon="17.7379482">
        <ele>78.4847</ele>
        <time>2012-03-27T15:36:22Z</time>
      </trkpt>
      <trkpt lat="59.9837544" lon="17.7379313">
        <ele>78.4847</ele>
        <time>2012-03-27T15:36:31Z</time>
      </trkpt>
      <trkpt lat="59.9838533" lon="17.7379377">
        <ele>78.9655</ele>
        <time>2012-03-27T15:36:39Z</time>
      </trkpt>
      <trkpt lat="59.9839722" lon="17.7379037">
        <ele>76.5621</ele>
        <time>2012-03-27T15:36:46Z</time>
      </trkpt>
      <trkpt lat="59.9840617" lon="17.7378805">
        <ele>78.9655</ele>
        <time>2012-03-27T15:36:50Z</time>
      </trkpt>
      <trkpt lat="59.9841447" lon="17.7378931">
        <ele>78.9655</ele>
        <time>2012-03-27T15:36:56Z</time>
      </trkpt>
      <trkpt lat="59.9841678" lon="17.7378997">
        <ele>78.004</ele>
        <time>2012-03-27T15:36:58Z</time>
      </trkpt>
      <trkpt lat="59.9841829" lon="17.7379225">
        <ele>77.5234</ele>
        <time>2012-03-27T15:37:00Z</time>
      </trkpt>
      <trkpt lat="59.9842432" lon="17.737949">
        <ele>73.6782</ele>
        <time>2012-03-27T15:37:04Z</time>
      </trkpt>
      <trkpt lat="59.9842714" lon="17.7379671">
        <ele>73.1976</ele>
        <time>2012-03-27T15:37:06Z</time>
      </trkpt>
      <trkpt lat="59.9843291" lon="17.7379365">
        <ele>71.7555</ele>
        <time>2012-03-27T15:37:10Z</time>
      </trkpt>
      <trkpt lat="59.9844398" lon="17.7379345">
        <ele>71.7555</ele>
        <time>2012-03-27T15:37:16Z</time>
      </trkpt>
      <trkpt lat="59.984454" lon="17.7379454">
        <ele>70.7942</ele>
        <time>2012-03-27T15:37:17Z</time>
      </trkpt>
      <trkpt lat="59.984539" lon="17.7379878">
        <ele>70.3135</ele>
        <time>2012-03-27T15:37:22Z</time>
      </trkpt>
      <trkpt lat="59.9846527" lon="17.7380154">
        <ele>69.8329</ele>
        <time>2012-03-27T15:37:29Z</time>
      </trkpt>
      <trkpt lat="59.9847399" lon="17.7380203">
        <ele>70.3135</ele>
        <time>2012-03-27T15:37:35Z</time>
      </trkpt>
      <trkpt lat="59.9847702" lon="17.7380453">
        <ele>71.2749</ele>
        <time>2012-03-27T15:37:37Z</time>
      </trkpt>
      <trkpt lat="59.9848028" lon="17.738048">
        <ele>72.7169</ele>
        <time>2012-03-27T15:37:39Z</time>
      </trkpt>
      <trkpt lat="59.9848718" lon="17.7380751">
        <ele>71.2749</ele>
        <time>2012-03-27T15:37:44Z</time>
      </trkpt>
      <trkpt lat="59.9849527" lon="17.7381189">
        <ele>68.8716</ele>
        <time>2012-03-27T15:37:49Z</time>
      </trkpt>
      <trkpt lat="59.9851328" lon="17.7381602">
        <ele>65.5071</ele>
        <time>2012-03-27T15:37:59Z</time>
      </trkpt>
      <trkpt lat="59.9852274" lon="17.7381733">
        <ele>65.5071</ele>
        <time>2012-03-27T15:38:05Z</time>
      </trkpt>
      <trkpt lat="59.9853214" lon="17.7381971">
        <ele>64.0651</ele>
        <time>2012-03-27T15:38:12Z</time>
      </trkpt>
      <trkpt lat="59.9853474" lon="17.7381925">
        <ele>64.5457</ele>
        <time>2012-03-27T15:38:14Z</time>
      </trkpt>
      <trkpt lat="59.9854174" lon="17.738196">
        <ele>66.4683</ele>
        <time>2012-03-27T15:38:20Z</time>
      </trkpt>
      <trkpt lat="59.9854827" lon="17.7382276">
        <ele>66.4683</ele>
        <time>2012-03-27T15:38:24Z</time>
      </trkpt>
      <trkpt lat="59.9855902" lon="17.738282">
        <ele>65.9877</ele>
        <time>2012-03-27T15:38:31Z</time>
      </trkpt>
      <trkpt lat="59.9857142" lon="17.7383317">
        <ele>67.4297</ele>
        <time>2012-03-27T15:38:38Z</time>
      </trkpt>
      <trkpt lat="59.9857619" lon="17.7383582">
        <ele>69.8329</ele>
        <time>2012-03-27T15:38:41Z</time>
      </trkpt>
      <trkpt lat="59.9858567" lon="17.7384088">
        <ele>71.2749</ele>
        <time>2012-03-27T15:38:47Z</time>
      </trkpt>
      <trkpt lat="59.9859516" lon="17.7384411">
        <ele>71.2749</ele>
        <time>2012-03-27T15:38:53Z</time>
      </trkpt>
      <trkpt lat="59.9860238" lon="17.7384649">
        <ele>69.3523</ele>
        <time>2012-03-27T15:38:56Z</time>
      </trkpt>
      <trkpt lat="59.9861233" lon="17.7385426">
        <ele>70.7942</ele>
        <time>2012-03-27T15:39:03Z</time>
      </trkpt>
      <trkpt lat="59.9861581" lon="17.7385569">
        <ele>73.1976</ele>
        <time>2012-03-27T15:39:05Z</time>
      </trkpt>
      <trkpt lat="59.9862626" lon="17.7386587">
        <ele>70.7942</ele>
        <time>2012-03-27T15:39:11Z</time>
      </trkpt>
      <trkpt lat="59.9862738" lon="17.7386695">
        <ele>69.8329</ele>
        <time>2012-03-27T15:39:12Z</time>
      </trkpt>
      <trkpt lat="59.9863795" lon="17.7387254">
        <ele>66.949</ele>
        <time>2012-03-27T15:39:18Z</time>
      </trkpt>
      <trkpt lat="59.9864424" lon="17.7388071">
        <ele>63.1036</ele>
        <time>2012-03-27T15:39:24Z</time>
      </trkpt>
      <trkpt lat="59.9865114" lon="17.7389099">
        <ele>58.7777</ele>
        <time>2012-03-27T15:39:31Z</time>
      </trkpt>
      <trkpt lat="59.9865336" lon="17.7389806">
        <ele>53.9712</ele>
        <time>2012-03-27T15:39:35Z</time>
      </trkpt>
      <trkpt lat="59.9865819" lon="17.7390885">
        <ele>47.2418</ele>
        <time>2012-03-27T15:39:42Z</time>
      </trkpt>
      <trkpt lat="59.9866705" lon="17.7392014">
        <ele>45.3192</ele>
        <time>2012-03-27T15:39:49Z</time>
      </trkpt>
      <trkpt lat="59.9867139" lon="17.7392548">
        <ele>41.9547</ele>
        <time>2012-03-27T15:39:53Z</time>
      </trkpt>
      <trkpt lat="59.9867464" lon="17.7393466">
        <ele>36.6675</ele>
        <time>2012-03-27T15:39:59Z</time>
      </trkpt>
      <trkpt lat="59.9867948" lon="17.7394238">
        <ele>33.3029</ele>
        <time>2012-03-27T15:40:04Z</time>
      </trkpt>
      <trkpt lat="59.9868827" lon="17.7394879">
        <ele>30.4188</ele>
        <time>2012-03-27T15:40:13Z</time>
      </trkpt>
      <trkpt lat="59.9869196" lon="17.7394709">
        <ele>21.767</ele>
        <time>2012-03-27T15:40:19Z</time>
      </trkpt>
      <trkpt lat="59.9869714" lon="17.7394712">
        <ele>23.6896</ele>
        <time>2012-03-27T15:40:22Z</time>
      </trkpt>
      <trkpt lat="59.9870169" lon="17.7394792">
        <ele>25.6123</ele>
        <time>2012-03-27T15:40:24Z</time>
      </trkpt>
      <trkpt lat="59.9870895" lon="17.7394372">
        <ele>29.4575</ele>
        <time>2012-03-27T15:40:27Z</time>
      </trkpt>
      <trkpt lat="59.9871774" lon="17.7394228">
        <ele>33.3029</ele>
        <time>2012-03-27T15:40:31Z</time>
      </trkpt>
      <trkpt lat="59.9872968" lon="17.739416">
        <ele>34.7449</ele>
        <time>2012-03-27T15:40:37Z</time>
      </trkpt>
      <trkpt lat="59.9873708" lon="17.7394051">
        <ele>36.1868</ele>
        <time>2012-03-27T15:40:42Z</time>
      </trkpt>
      <trkpt lat="59.9874181" lon="17.739374">
        <ele>36.6675</ele>
        <time>2012-03-27T15:40:45Z</time>
      </trkpt>
      <trkpt lat="59.9875236" lon="17.7393719">
        <ele>39.0707</ele>
        <time>2012-03-27T15:40:51Z</time>
      </trkpt>
      <trkpt lat="59.9875364" lon="17.7393652">
        <ele>38.5901</ele>
        <time>2012-03-27T15:40:52Z</time>
      </trkpt>
      <trkpt lat="59.9876993" lon="17.7393143">
        <ele>44.8386</ele>
        <time>2012-03-27T15:41:00Z</time>
      </trkpt>
      <trkpt lat="59.9878199" lon="17.7392787">
        <ele>56.8551</ele>
        <time>2012-03-27T15:41:05Z</time>
      </trkpt>
      <trkpt lat="59.9879604" lon="17.7392076">
        <ele>66.4683</ele>
        <time>2012-03-27T15:41:11Z</time>
      </trkpt>
      <trkpt lat="59.9880554" lon="17.7391989">
        <ele>68.3909</ele>
        <time>2012-03-27T15:41:17Z</time>
      </trkpt>
      <trkpt lat="59.9881598" lon="17.7391678">
        <ele>68.8716</ele>
        <time>2012-03-27T15:41:23Z</time>
      </trkpt>
      <trkpt lat="59.9882539" lon="17.739144">
        <ele>68.3909</ele>
        <time>2012-03-27T15:41:29Z</time>
      </trkpt>
      <trkpt lat="59.9883541" lon="17.7391062">
        <ele>68.3909</ele>
        <time>2012-03-27T15:41:35Z</time>
      </trkpt>
      <trkpt lat="59.98843" lon="17.7390887">
        <ele>63.5844</ele>
        <time>2012-03-27T15:41:41Z</time>
      </trkpt>
      <trkpt lat="59.9885227" lon="17.7390471">
        <ele>61.6617</ele>
        <time>2012-03-27T15:41:48Z</time>
      </trkpt>
      <trkpt lat="59.9885923" lon="17.7389673">
        <ele>53.4905</ele>
        <time>2012-03-27T15:41:56Z</time>
      </trkpt>
      <trkpt lat="59.9886301" lon="17.7389397">
        <ele>50.126</ele>
        <time>2012-03-27T15:42:00Z</time>
      </trkpt>
      <trkpt lat="59.9886629" lon="17.7388646">
        <ele>46.2806</ele>
        <time>2012-03-27T15:42:04Z</time>
      </trkpt>
      <trkpt lat="59.9888405" lon="17.7387429">
        <ele>60.2197</ele>
        <time>2012-03-27T15:42:11Z</time>
      </trkpt>
      <trkpt lat="59.988943" lon="17.7386813">
        <ele>59.2584</ele>
        <time>2012-03-27T15:42:19Z</time>
      </trkpt>
      <trkpt lat="59.9890145" lon="17.73864">
        <ele>56.3745</ele>
        <time>2012-03-27T15:42:26Z</time>
      </trkpt>
      <trkpt lat="59.9890507" lon="17.7386214">
        <ele>49.6453</ele>
        <time>2012-03-27T15:42:32Z</time>
      </trkpt>
      <trkpt lat="59.989079" lon="17.7386099">
        <ele>43.3966</ele>
        <time>2012-03-27T15:42:37Z</time>
      </trkpt>
      <trkpt lat="59.9891091" lon="17.738594">
        <ele>34.7449</ele>
        <time>2012-03-27T15:42:43Z</time>
      </trkpt>
      <trkpt lat="59.9891559" lon="17.7385916">
        <ele>34.2642</ele>
        <time>2012-03-27T15:42:47Z</time>
      </trkpt>
      <trkpt lat="59.9892029" lon="17.7385546">
        <ele>29.9381</ele>
        <time>2012-03-27T15:42:52Z</time>
      </trkpt>
      <trkpt lat="59.9892719" lon="17.7384991">
        <ele>29.4575</ele>
        <time>2012-03-27T15:42:57Z</time>
      </trkpt>
      <trkpt lat="59.9893625" lon="17.7384975">
        <ele>34.2642</ele>
        <time>2012-03-27T15:43:02Z</time>
      </trkpt>
      <trkpt lat="59.9894408" lon="17.7384911">
        <ele>38.1094</ele>
        <time>2012-03-27T15:43:06Z</time>
      </trkpt>
      <trkpt lat="59.9895852" lon="17.7383951">
        <ele>45.7999</ele>
        <time>2012-03-27T15:43:14Z</time>
      </trkpt>
      <trkpt lat="59.9897115" lon="17.7384095">
        <ele>49.6453</ele>
        <time>2012-03-27T15:43:21Z</time>
      </trkpt>
      <trkpt lat="59.989864" lon="17.7383676">
        <ele>53.0098</ele>
        <time>2012-03-27T15:43:29Z</time>
      </trkpt>
      <trkpt lat="59.9898892" lon="17.7383731">
        <ele>51.0872</ele>
        <time>2012-03-27T15:43:31Z</time>
      </trkpt>
      <trkpt lat="59.9899656" lon="17.7383145">
        <ele>51.0872</ele>
        <time>2012-03-27T15:43:36Z</time>
      </trkpt>
      <trkpt lat="59.989981" lon="17.7382894">
        <ele>50.126</ele>
        <time>2012-03-27T15:43:38Z</time>
      </trkpt>
      <trkpt lat="59.9901499" lon="17.7382124">
        <ele>62.6229</ele>
        <time>2012-03-27T15:43:44Z</time>
      </trkpt>
      <trkpt lat="59.9902347" lon="17.7381602">
        <ele>66.4683</ele>
        <time>2012-03-27T15:43:48Z</time>
      </trkpt>
      <trkpt lat="59.9903134" lon="17.738122">
        <ele>69.8329</ele>
        <time>2012-03-27T15:43:53Z</time>
      </trkpt>
      <trkpt lat="59.9904183" lon="17.7380649">
        <ele>71.7555</ele>
        <time>2012-03-27T15:43:59Z</time>
      </trkpt>
      <trkpt lat="59.9904921" lon="17.738038">
        <ele>68.3909</ele>
        <time>2012-03-27T15:44:05Z</time>
      </trkpt>
      <trkpt lat="59.99053" lon="17.7380224">
        <ele>61.6617</ele>
        <time>2012-03-27T15:44:11Z</time>
      </trkpt>
      <trkpt lat="59.9905824" lon="17.7380461">
        <ele>57.8165</ele>
        <time>2012-03-27T15:44:16Z</time>
      </trkpt>
      <trkpt lat="59.990589" lon="17.7380386">
        <ele>56.8551</ele>
        <time>2012-03-27T15:44:17Z</time>
      </trkpt>
      <trkpt lat="59.9907721" lon="17.7378877">
        <ele>78.4847</ele>
        <time>2012-03-27T15:44:24Z</time>
      </trkpt>
      <trkpt lat="59.9907959" lon="17.7378584">
        <ele>78.4847</ele>
        <time>2012-03-27T15:44:26Z</time>
      </trkpt>
      <trkpt lat="59.99081" lon="17.7378341">
        <ele>76.5621</ele>
        <time>2012-03-27T15:44:28Z</time>
      </trkpt>
      <trkpt lat="59.9908568" lon="17.7377693">
        <ele>71.7555</ele>
        <time>2012-03-27T15:44:34Z</time>
      </trkpt>
      <trkpt lat="59.9908649" lon="17.7377529">
        <ele>68.3909</ele>
        <time>2012-03-27T15:44:36Z</time>
      </trkpt>
      <trkpt lat="59.9910938" lon="17.7376568">
        <ele>93.3851</ele>
        <time>2012-03-27T15:44:43Z</time>
      </trkpt>
      <trkpt lat="59.9911668" lon="17.7376288">
        <ele>90.9819</ele>
        <time>2012-03-27T15:44:49Z</time>
      </trkpt>
      <trkpt lat="59.991249" lon="17.7375869">
        <ele>89.0593</ele>
        <time>2012-03-27T15:44:57Z</time>
      </trkpt>
      <trkpt lat="59.9912865" lon="17.7375894">
        <ele>84.7334</ele>
        <time>2012-03-27T15:45:00Z</time>
      </trkpt>
      <trkpt lat="59.9913782" lon="17.7375926">
        <ele>79.9266</ele>
        <time>2012-03-27T15:45:05Z</time>
      </trkpt>
      <trkpt lat="59.991471" lon="17.737575">
        <ele>75.6008</ele>
        <time>2012-03-27T15:45:12Z</time>
      </trkpt>
      <trkpt lat="59.9915465" lon="17.7375699">
        <ele>75.6008</ele>
        <time>2012-03-27T15:45:17Z</time>
      </trkpt>
      <trkpt lat="59.9916447" lon="17.7375595">
        <ele>71.7555</ele>
        <time>2012-03-27T15:45:24Z</time>
      </trkpt>
      <trkpt lat="59.9917339" lon="17.7375668">
        <ele>69.8329</ele>
        <time>2012-03-27T15:45:30Z</time>
      </trkpt>
      <trkpt lat="59.991811" lon="17.7375646">
        <ele>68.8716</ele>
        <time>2012-03-27T15:45:34Z</time>
      </trkpt>
      <trkpt lat="59.9918923" lon="17.7375516">
        <ele>67.9103</ele>
        <time>2012-03-27T15:45:40Z</time>
      </trkpt>
      <trkpt lat="59.9919449" lon="17.7375481">
        <ele>68.3909</ele>
        <time>2012-03-27T15:45:43Z</time>
      </trkpt>
      <trkpt lat="59.9920547" lon="17.7374979">
        <ele>66.4683</ele>
        <time>2012-03-27T15:45:51Z</time>
      </trkpt>
      <trkpt lat="59.9921282" lon="17.7374652">
        <ele>62.6229</ele>
        <time>2012-03-27T15:45:57Z</time>
      </trkpt>
      <trkpt lat="59.9921565" lon="17.7374403">
        <ele>61.181</ele>
        <time>2012-03-27T15:46:00Z</time>
      </trkpt>
      <trkpt lat="59.9921829" lon="17.7374159">
        <ele>59.2584</ele>
        <time>2012-03-27T15:46:03Z</time>
      </trkpt>
      <trkpt lat="59.9922226" lon="17.7374688">
        <ele>58.7777</ele>
        <time>2012-03-27T15:46:06Z</time>
      </trkpt>
      <trkpt lat="59.9922261" lon="17.7375471">
        <ele>59.7391</ele>
        <time>2012-03-27T15:46:10Z</time>
      </trkpt>
      <trkpt lat="59.9921359" lon="17.7375569">
        <ele>56.8551</ele>
        <time>2012-03-27T15:46:17Z</time>
      </trkpt>
      <trkpt lat="59.9920372" lon="17.7376117">
        <ele>54.4518</ele>
        <time>2012-03-27T15:46:23Z</time>
      </trkpt>
      <trkpt lat="59.99195" lon="17.7376759">
        <ele>53.0098</ele>
        <time>2012-03-27T15:46:29Z</time>
      </trkpt>
      <trkpt lat="59.9919087" lon="17.7376914">
        <ele>52.5292</ele>
        <time>2012-03-27T15:46:32Z</time>
      </trkpt>
      <trkpt lat="59.991832" lon="17.7377655">
        <ele>52.5292</ele>
        <time>2012-03-27T15:46:37Z</time>
      </trkpt>
      <trkpt lat="59.9917616" lon="17.7378297">
        <ele>52.5292</ele>
        <time>2012-03-27T15:46:42Z</time>
      </trkpt>
      <trkpt lat="59.9916745" lon="17.73784">
        <ele>53.9712</ele>
        <time>2012-03-27T15:46:48Z</time>
      </trkpt>
      <trkpt lat="59.9915987" lon="17.7378377">
        <ele>54.4518</ele>
        <time>2012-03-27T15:46:54Z</time>
      </trkpt>
      <trkpt lat="59.9915704" lon="17.7378344">
        <ele>53.9712</ele>
        <time>2012-03-27T15:46:56Z</time>
      </trkpt>
      <trkpt lat="59.9915088" lon="17.7378292">
        <ele>53.4905</ele>
        <time>2012-03-27T15:47:01Z</time>
      </trkpt>
      <trkpt lat="59.9914762" lon="17.7378452">
        <ele>53.9712</ele>
        <time>2012-03-27T15:47:03Z</time>
      </trkpt>
      <trkpt lat="59.9913948" lon="17.7378552">
        <ele>53.4905</ele>
        <time>2012-03-27T15:47:08Z</time>
      </trkpt>
      <trkpt lat="59.9913222" lon="17.7378697">
        <ele>53.0098</ele>
        <time>2012-03-27T15:47:13Z</time>
      </trkpt>
      <trkpt lat="59.99119" lon="17.7378903">
        <ele>55.4131</ele>
        <time>2012-03-27T15:47:21Z</time>
      </trkpt>
      <trkpt lat="59.9911051" lon="17.7379011">
        <ele>55.8938</ele>
        <time>2012-03-27T15:47:26Z</time>
      </trkpt>
      <trkpt lat="59.9910693" lon="17.7379318">
        <ele>56.3745</ele>
        <time>2012-03-27T15:47:29Z</time>
      </trkpt>
      <trkpt lat="59.9909786" lon="17.7379565">
        <ele>56.3745</ele>
        <time>2012-03-27T15:47:35Z</time>
      </trkpt>
      <trkpt lat="59.9908902" lon="17.7380725">
        <ele>57.8165</ele>
        <time>2012-03-27T15:47:40Z</time>
      </trkpt>
      <trkpt lat="59.990813" lon="17.7381254">
        <ele>59.7391</ele>
        <time>2012-03-27T15:47:45Z</time>
      </trkpt>
      <trkpt lat="59.9907652" lon="17.7381769">
        <ele>60.7003</ele>
        <time>2012-03-27T15:47:48Z</time>
      </trkpt>
      <trkpt lat="59.990723" lon="17.7382218">
        <ele>61.181</ele>
        <time>2012-03-27T15:47:51Z</time>
      </trkpt>
      <trkpt lat="59.9906352" lon="17.7382337">
        <ele>60.7003</ele>
        <time>2012-03-27T15:47:57Z</time>
      </trkpt>
      <trkpt lat="59.9906214" lon="17.7382451">
        <ele>61.181</ele>
        <time>2012-03-27T15:47:58Z</time>
      </trkpt>
      <trkpt lat="59.9905181" lon="17.7382783">
        <ele>59.2584</ele>
        <time>2012-03-27T15:48:06Z</time>
      </trkpt>
      <trkpt lat="59.9904633" lon="17.7383043">
        <ele>59.2584</ele>
        <time>2012-03-27T15:48:10Z</time>
      </trkpt>
      <trkpt lat="59.9904494" lon="17.7383122">
        <ele>59.2584</ele>
        <time>2012-03-27T15:48:11Z</time>
      </trkpt>
      <trkpt lat="59.9903623" lon="17.7382913">
        <ele>58.7777</ele>
        <time>2012-03-27T15:48:17Z</time>
      </trkpt>
      <trkpt lat="59.9902934" lon="17.7383126">
        <ele>60.2197</ele>
        <time>2012-03-27T15:48:21Z</time>
      </trkpt>
      <trkpt lat="59.9902629" lon="17.7383338">
        <ele>60.2197</ele>
        <time>2012-03-27T15:48:23Z</time>
      </trkpt>
      <trkpt lat="59.9902032" lon="17.7383148">
        <ele>61.181</ele>
        <time>2012-03-27T15:48:27Z</time>
      </trkpt>
      <trkpt lat="59.9901436" lon="17.7382908">
        <ele>62.6229</ele>
        <time>2012-03-27T15:48:30Z</time>
      </trkpt>
      <trkpt lat="59.9900865" lon="17.7383618">
        <ele>64.0651</ele>
        <time>2012-03-27T15:48:34Z</time>
      </trkpt>
      <trkpt lat="59.989994" lon="17.7384732">
        <ele>65.0264</ele>
        <time>2012-03-27T15:48:40Z</time>
      </trkpt>
      <trkpt lat="59.9899174" lon="17.7385338">
        <ele>64.0651</ele>
        <time>2012-03-27T15:48:46Z</time>
      </trkpt>
      <trkpt lat="59.9898866" lon="17.7385538">
        <ele>64.5457</ele>
        <time>2012-03-27T15:48:48Z</time>
      </trkpt>
      <trkpt lat="59.9898366" lon="17.7386151">
        <ele>63.5844</ele>
        <time>2012-03-27T15:48:52Z</time>
      </trkpt>
      <trkpt lat="59.9897558" lon="17.7386053">
        <ele>62.6229</ele>
        <time>2012-03-27T15:48:58Z</time>
      </trkpt>
      <trkpt lat="59.9897328" lon="17.7386046">
        <ele>62.1423</ele>
        <time>2012-03-27T15:49:00Z</time>
      </trkpt>
      <trkpt lat="59.9896801" lon="17.7386131">
        <ele>61.181</ele>
        <time>2012-03-27T15:49:04Z</time>
      </trkpt>
      <trkpt lat="59.9896029" lon="17.7386248">
        <ele>59.2584</ele>
        <time>2012-03-27T15:49:10Z</time>
      </trkpt>
      <trkpt lat="59.9895302" lon="17.7385725">
        <ele>58.2971</ele>
        <time>2012-03-27T15:49:16Z</time>
      </trkpt>
      <trkpt lat="59.9895132" lon="17.7385752">
        <ele>58.7777</ele>
        <time>2012-03-27T15:49:17Z</time>
      </trkpt>
      <trkpt lat="59.9894657" lon="17.7385326">
        <ele>58.7777</ele>
        <time>2012-03-27T15:49:20Z</time>
      </trkpt>
      <trkpt lat="59.9894464" lon="17.7385615">
        <ele>58.7777</ele>
        <time>2012-03-27T15:49:22Z</time>
      </trkpt>
      <trkpt lat="59.9893442" lon="17.738632">
        <ele>58.2971</ele>
        <time>2012-03-27T15:49:29Z</time>
      </trkpt>
      <trkpt lat="59.9892221" lon="17.738727">
        <ele>57.3358</ele>
        <time>2012-03-27T15:49:36Z</time>
      </trkpt>
      <trkpt lat="59.9892068" lon="17.7387529">
        <ele>57.3358</ele>
        <time>2012-03-27T15:49:37Z</time>
      </trkpt>
      <trkpt lat="59.9891207" lon="17.738863">
        <ele>57.3358</ele>
        <time>2012-03-27T15:49:44Z</time>
      </trkpt>
      <trkpt lat="59.9890601" lon="17.7388781">
        <ele>57.8165</ele>
        <time>2012-03-27T15:49:48Z</time>
      </trkpt>
      <trkpt lat="59.9889827" lon="17.73894">
        <ele>56.8551</ele>
        <time>2012-03-27T15:49:54Z</time>
      </trkpt>
      <trkpt lat="59.9889025" lon="17.7390156">
        <ele>56.3745</ele>
        <time>2012-03-27T15:49:59Z</time>
      </trkpt>
      <trkpt lat="59.9888849" lon="17.7390329">
        <ele>56.3745</ele>
        <time>2012-03-27T15:50:00Z</time>
      </trkpt>
      <trkpt lat="59.9888387" lon="17.7390822">
        <ele>57.3358</ele>
        <time>2012-03-27T15:50:03Z</time>
      </trkpt>
      <trkpt lat="59.9887927" lon="17.7391224">
        <ele>58.2971</ele>
        <time>2012-03-27T15:50:06Z</time>
      </trkpt>
      <trkpt lat="59.9886854" lon="17.7392382">
        <ele>62.1423</ele>
        <time>2012-03-27T15:50:14Z</time>
      </trkpt>
      <trkpt lat="59.9886698" lon="17.7392481">
        <ele>62.6229</ele>
        <time>2012-03-27T15:50:15Z</time>
      </trkpt>
      <trkpt lat="59.9886006" lon="17.7392984">
        <ele>63.5844</ele>
        <time>2012-03-27T15:50:20Z</time>
      </trkpt>
      <trkpt lat="59.9884582" lon="17.7393702">
        <ele>64.0651</ele>
        <time>2012-03-27T15:50:28Z</time>
      </trkpt>
      <trkpt lat="59.9883694" lon="17.7394187">
        <ele>64.0651</ele>
        <time>2012-03-27T15:50:34Z</time>
      </trkpt>
      <trkpt lat="59.9883109" lon="17.7394387">
        <ele>62.6229</ele>
        <time>2012-03-27T15:50:38Z</time>
      </trkpt>
      <trkpt lat="59.9882722" lon="17.7394315">
        <ele>60.7003</ele>
        <time>2012-03-27T15:50:41Z</time>
      </trkpt>
      <trkpt lat="59.9881972" lon="17.7394321">
        <ele>57.3358</ele>
        <time>2012-03-27T15:50:47Z</time>
      </trkpt>
      <trkpt lat="59.9881592" lon="17.7394537">
        <ele>55.8938</ele>
        <time>2012-03-27T15:50:50Z</time>
      </trkpt>
      <trkpt lat="59.9881107" lon="17.7394755">
        <ele>55.8938</ele>
        <time>2012-03-27T15:50:53Z</time>
      </trkpt>
      <trkpt lat="59.987995" lon="17.7395173">
        <ele>58.7777</ele>
        <time>2012-03-27T15:50:59Z</time>
      </trkpt>
      <trkpt lat="59.9879837" lon="17.7395162">
        <ele>59.2584</ele>
        <time>2012-03-27T15:51:00Z</time>
      </trkpt>
      <trkpt lat="59.9879578" lon="17.7395081">
        <ele>59.7391</ele>
        <time>2012-03-27T15:51:02Z</time>
      </trkpt>
      <trkpt lat="59.9878726" lon="17.7394945">
        <ele>57.8165</ele>
        <time>2012-03-27T15:51:10Z</time>
      </trkpt>
      <trkpt lat="59.9878583" lon="17.7394817">
        <ele>57.3358</ele>
        <time>2012-03-27T15:51:11Z</time>
      </trkpt>
      <trkpt lat="59.9878335" lon="17.7394797">
        <ele>57.3358</ele>
        <time>2012-03-27T15:51:13Z</time>
      </trkpt>
      <trkpt lat="59.9877636" lon="17.7395052">
        <ele>57.3358</ele>
        <time>2012-03-27T15:51:17Z</time>
      </trkpt>
      <trkpt lat="59.9876551" lon="17.7395556">
        <ele>58.7777</ele>
        <time>2012-03-27T15:51:23Z</time>
      </trkpt>
      <trkpt lat="59.987583" lon="17.7395375">
        <ele>58.2971</ele>
        <time>2012-03-27T15:51:28Z</time>
      </trkpt>
      <trkpt lat="59.9875303" lon="17.7395677">
        <ele>59.2584</ele>
        <time>2012-03-27T15:51:31Z</time>
      </trkpt>
      <trkpt lat="59.9873875" lon="17.7395651">
        <ele>58.7777</ele>
        <time>2012-03-27T15:51:40Z</time>
      </trkpt>
      <trkpt lat="59.9872945" lon="17.7395796">
        <ele>58.7777</ele>
        <time>2012-03-27T15:51:46Z</time>
      </trkpt>
      <trkpt lat="59.9872552" lon="17.7395921">
        <ele>58.2971</ele>
        <time>2012-03-27T15:51:49Z</time>
      </trkpt>
      <trkpt lat="59.9872309" lon="17.7395962">
        <ele>58.2971</ele>
        <time>2012-03-27T15:51:51Z</time>
      </trkpt>
      <trkpt lat="59.9871673" lon="17.7395941">
        <ele>58.2971</ele>
        <time>2012-03-27T15:51:56Z</time>
      </trkpt>
      <trkpt lat="59.9871396" lon="17.7395854">
        <ele>57.3358</ele>
        <time>2012-03-27T15:51:59Z</time>
      </trkpt>
      <trkpt lat="59.98706" lon="17.7395826">
        <ele>57.3358</ele>
        <time>2012-03-27T15:52:06Z</time>
      </trkpt>
      <trkpt lat="59.9870263" lon="17.7395688">
        <ele>57.3358</ele>
        <time>2012-03-27T15:52:09Z</time>
      </trkpt>
      <trkpt lat="59.9869679" lon="17.7394774">
        <ele>57.3358</ele>
        <time>2012-03-27T15:52:15Z</time>
      </trkpt>
      <trkpt lat="59.9868937" lon="17.7393632">
        <ele>56.3745</ele>
        <time>2012-03-27T15:52:22Z</time>
      </trkpt>
      <trkpt lat="59.9868678" lon="17.7393353">
        <ele>55.4131</ele>
        <time>2012-03-27T15:52:24Z</time>
      </trkpt>
      <trkpt lat="59.9867835" lon="17.7391992">
        <ele>53.4905</ele>
        <time>2012-03-27T15:52:32Z</time>
      </trkpt>
      <trkpt lat="59.9867291" lon="17.7391544">
        <ele>53.4905</ele>
        <time>2012-03-27T15:52:36Z</time>
      </trkpt>
      <trkpt lat="59.9867067" lon="17.7391353">
        <ele>52.0486</ele>
        <time>2012-03-27T15:52:38Z</time>
      </trkpt>
      <trkpt lat="59.9866316" lon="17.7390632">
        <ele>50.126</ele>
        <time>2012-03-27T15:52:44Z</time>
      </trkpt>
      <trkpt lat="59.9865928" lon="17.7390404">
        <ele>50.6066</ele>
        <time>2012-03-27T15:52:48Z</time>
      </trkpt>
      <trkpt lat="59.9864853" lon="17.7389435">
        <ele>51.0872</ele>
        <time>2012-03-27T15:52:55Z</time>
      </trkpt>
      <trkpt lat="59.9864208" lon="17.7388959">
        <ele>51.5679</ele>
        <time>2012-03-27T15:52:59Z</time>
      </trkpt>
      <trkpt lat="59.9863193" lon="17.7388539">
        <ele>53.4905</ele>
        <time>2012-03-27T15:53:05Z</time>
      </trkpt>
      <trkpt lat="59.9861928" lon="17.7387689">
        <ele>54.4518</ele>
        <time>2012-03-27T15:53:13Z</time>
      </trkpt>
      <trkpt lat="59.9861357" lon="17.7387254">
        <ele>54.4518</ele>
        <time>2012-03-27T15:53:17Z</time>
      </trkpt>
      <trkpt lat="59.9860898" lon="17.7386944">
        <ele>53.9712</ele>
        <time>2012-03-27T15:53:20Z</time>
      </trkpt>
      <trkpt lat="59.9859904" lon="17.7386717">
        <ele>54.4518</ele>
        <time>2012-03-27T15:53:26Z</time>
      </trkpt>
      <trkpt lat="59.9859308" lon="17.7386347">
        <ele>53.0098</ele>
        <time>2012-03-27T15:53:31Z</time>
      </trkpt>
      <trkpt lat="59.9858689" lon="17.7385851">
        <ele>52.0486</ele>
        <time>2012-03-27T15:53:36Z</time>
      </trkpt>
      <trkpt lat="59.9858251" lon="17.7385576">
        <ele>50.126</ele>
        <time>2012-03-27T15:53:40Z</time>
      </trkpt>
      <trkpt lat="59.9857555" lon="17.7385384">
        <ele>48.684</ele>
        <time>2012-03-27T15:53:45Z</time>
      </trkpt>
      <trkpt lat="59.9856908" lon="17.7384969">
        <ele>49.1646</ele>
        <time>2012-03-27T15:53:50Z</time>
      </trkpt>
      <trkpt lat="59.9856392" lon="17.7384626">
        <ele>47.2418</ele>
        <time>2012-03-27T15:53:54Z</time>
      </trkpt>
      <trkpt lat="59.9855557" lon="17.7384686">
        <ele>47.2418</ele>
        <time>2012-03-27T15:54:00Z</time>
      </trkpt>
      <trkpt lat="59.9855146" lon="17.7384719">
        <ele>46.7612</ele>
        <time>2012-03-27T15:54:03Z</time>
      </trkpt>
      <trkpt lat="59.9854537" lon="17.7384854">
        <ele>47.7225</ele>
        <time>2012-03-27T15:54:09Z</time>
      </trkpt>
      <trkpt lat="59.9854159" lon="17.7384736">
        <ele>46.2806</ele>
        <time>2012-03-27T15:54:12Z</time>
      </trkpt>
      <trkpt lat="59.9853509" lon="17.7384778">
        <ele>44.358</ele>
        <time>2012-03-27T15:54:17Z</time>
      </trkpt>
      <trkpt lat="59.9853198" lon="17.7384504">
        <ele>43.8773</ele>
        <time>2012-03-27T15:54:19Z</time>
      </trkpt>
      <trkpt lat="59.985248" lon="17.7384514">
        <ele>41.9547</ele>
        <time>2012-03-27T15:54:24Z</time>
      </trkpt>
      <trkpt lat="59.9851469" lon="17.7384271">
        <ele>40.5128</ele>
        <time>2012-03-27T15:54:31Z</time>
      </trkpt>
      <trkpt lat="59.9850999" lon="17.7384048">
        <ele>40.9934</ele>
        <time>2012-03-27T15:54:34Z</time>
      </trkpt>
      <trkpt lat="59.9849823" lon="17.738413">
        <ele>41.9547</ele>
        <time>2012-03-27T15:54:42Z</time>
      </trkpt>
      <trkpt lat="59.984884" lon="17.7383307">
        <ele>43.3966</ele>
        <time>2012-03-27T15:54:47Z</time>
      </trkpt>
      <trkpt lat="59.984758" lon="17.7382788">
        <ele>45.3192</ele>
        <time>2012-03-27T15:54:54Z</time>
      </trkpt>
      <trkpt lat="59.9847435" lon="17.7382702">
        <ele>44.8386</ele>
        <time>2012-03-27T15:54:55Z</time>
      </trkpt>
      <trkpt lat="59.9846813" lon="17.738237">
        <ele>42.4354</ele>
        <time>2012-03-27T15:55:00Z</time>
      </trkpt>
      <trkpt lat="59.9845834" lon="17.7381831">
        <ele>38.5901</ele>
        <time>2012-03-27T15:55:07Z</time>
      </trkpt>
      <trkpt lat="59.9845145" lon="17.7381723">
        <ele>38.5901</ele>
        <time>2012-03-27T15:55:12Z</time>
      </trkpt>
      <trkpt lat="59.9844389" lon="17.7381791">
        <ele>38.1094</ele>
        <time>2012-03-27T15:55:17Z</time>
      </trkpt>
      <trkpt lat="59.9844103" lon="17.7381793">
        <ele>37.6287</ele>
        <time>2012-03-27T15:55:19Z</time>
      </trkpt>
      <trkpt lat="59.9843498" lon="17.7381298">
        <ele>36.1868</ele>
        <time>2012-03-27T15:55:24Z</time>
      </trkpt>
      <trkpt lat="59.9842895" lon="17.7381013">
        <ele>35.7061</ele>
        <time>2012-03-27T15:55:28Z</time>
      </trkpt>
      <trkpt lat="59.9842644" lon="17.7380748">
        <ele>35.7061</ele>
        <time>2012-03-27T15:55:30Z</time>
      </trkpt>
      <trkpt lat="59.9841541" lon="17.738097">
        <ele>36.6675</ele>
        <time>2012-03-27T15:55:37Z</time>
      </trkpt>
      <trkpt lat="59.9840694" lon="17.7381106">
        <ele>35.2255</ele>
        <time>2012-03-27T15:55:42Z</time>
      </trkpt>
      <trkpt lat="59.9839684" lon="17.7381717">
        <ele>35.7061</ele>
        <time>2012-03-27T15:55:47Z</time>
      </trkpt>
      <trkpt lat="59.9839187" lon="17.738171">
        <ele>35.2255</ele>
        <time>2012-03-27T15:55:50Z</time>
      </trkpt>
      <trkpt lat="59.9838271" lon="17.7382217">
        <ele>36.1868</ele>
        <time>2012-03-27T15:55:55Z</time>
      </trkpt>
      <trkpt lat="59.9837457" lon="17.738238">
        <ele>39.0707</ele>
        <time>2012-03-27T15:56:00Z</time>
      </trkpt>
      <trkpt lat="59.9836433" lon="17.7382447">
        <ele>40.5128</ele>
        <time>2012-03-27T15:56:06Z</time>
      </trkpt>
      <trkpt lat="59.9835736" lon="17.7382162">
        <ele>41.9547</ele>
        <time>2012-03-27T15:56:10Z</time>
      </trkpt>
      <trkpt lat="59.983522" lon="17.7382319">
        <ele>43.3966</ele>
        <time>2012-03-27T15:56:13Z</time>
      </trkpt>
      <trkpt lat="59.9834537" lon="17.7381953">
        <ele>43.3966</ele>
        <time>2012-03-27T15:56:19Z</time>
      </trkpt>
      <trkpt lat="59.9833815" lon="17.7381589">
        <ele>45.3192</ele>
        <time>2012-03-27T15:56:24Z</time>
      </trkpt>
      <trkpt lat="59.9832581" lon="17.7382117">
        <ele>49.1646</ele>
        <time>2012-03-27T15:56:31Z</time>
      </trkpt>
      <trkpt lat="59.9831805" lon="17.7382463">
        <ele>50.126</ele>
        <time>2012-03-27T15:56:36Z</time>
      </trkpt>
      <trkpt lat="59.9831236" lon="17.7382364">
        <ele>51.0872</ele>
        <time>2012-03-27T15:56:40Z</time>
      </trkpt>
      <trkpt lat="59.9830494" lon="17.7382542">
        <ele>50.6066</ele>
        <time>2012-03-27T15:56:45Z</time>
      </trkpt>
      <trkpt lat="59.9830191" lon="17.7382552">
        <ele>51.0872</ele>
        <time>2012-03-27T15:56:48Z</time>
      </trkpt>
      <trkpt lat="59.9829605" lon="17.7382676">
        <ele>51.0872</ele>
        <time>2012-03-27T15:56:53Z</time>
      </trkpt>
      <trkpt lat="59.9829491" lon="17.7382674">
        <ele>51.0872</ele>
        <time>2012-03-27T15:56:54Z</time>
      </trkpt>
      <trkpt lat="59.9828226" lon="17.738251">
        <ele>50.6066</ele>
        <time>2012-03-27T15:57:02Z</time>
      </trkpt>
      <trkpt lat="59.9826977" lon="17.7382609">
        <ele>51.0872</ele>
        <time>2012-03-27T15:57:10Z</time>
      </trkpt>
      <trkpt lat="59.9826599" lon="17.7382529">
        <ele>49.6453</ele>
        <time>2012-03-27T15:57:13Z</time>
      </trkpt>
      <trkpt lat="59.9826034" lon="17.7382313">
        <ele>49.1646</ele>
        <time>2012-03-27T15:57:16Z</time>
      </trkpt>
      <trkpt lat="59.982534" lon="17.7382598">
        <ele>50.126</ele>
        <time>2012-03-27T15:57:20Z</time>
      </trkpt>
      <trkpt lat="59.9824653" lon="17.7382328">
        <ele>50.6066</ele>
        <time>2012-03-27T15:57:24Z</time>
      </trkpt>
      <trkpt lat="59.9823666" lon="17.738239">
        <ele>52.5292</ele>
        <time>2012-03-27T15:57:30Z</time>
      </trkpt>
      <trkpt lat="59.9823342" lon="17.7382459">
        <ele>52.5292</ele>
        <time>2012-03-27T15:57:32Z</time>
      </trkpt>
      <trkpt lat="59.9822452" lon="17.7382767">
        <ele>54.4518</ele>
        <time>2012-03-27T15:57:37Z</time>
      </trkpt>
      <trkpt lat="59.9821808" lon="17.7383077">
        <ele>55.8938</ele>
        <time>2012-03-27T15:57:41Z</time>
      </trkpt>
      <trkpt lat="59.9820821" lon="17.7383421">
        <ele>56.8551</ele>
        <time>2012-03-27T15:57:48Z</time>
      </trkpt>
      <trkpt lat="59.9819738" lon="17.7384135">
        <ele>59.2584</ele>
        <time>2012-03-27T15:57:53Z</time>
      </trkpt>
      <trkpt lat="59.9818888" lon="17.7384898">
        <ele>60.2197</ele>
        <time>2012-03-27T15:57:59Z</time>
      </trkpt>
      <trkpt lat="59.9817972" lon="17.7385281">
        <ele>60.2197</ele>
        <time>2012-03-27T15:58:06Z</time>
      </trkpt>
      <trkpt lat="59.9817542" lon="17.738556">
        <ele>60.7003</ele>
        <time>2012-03-27T15:58:09Z</time>
      </trkpt>
      <trkpt lat="59.9816831" lon="17.73855">
        <ele>59.7391</ele>
        <time>2012-03-27T15:58:13Z</time>
      </trkpt>
      <trkpt lat="59.9816085" lon="17.73858">
        <ele>58.7777</ele>
        <time>2012-03-27T15:58:18Z</time>
      </trkpt>
      <trkpt lat="59.9815592" lon="17.7385741">
        <ele>55.8938</ele>
        <time>2012-03-27T15:58:22Z</time>
      </trkpt>
      <trkpt lat="59.9814851" lon="17.7386211">
        <ele>53.9712</ele>
        <time>2012-03-27T15:58:27Z</time>
      </trkpt>
      <trkpt lat="59.98139" lon="17.7386508">
        <ele>50.6066</ele>
        <time>2012-03-27T15:58:34Z</time>
      </trkpt>
      <trkpt lat="59.9813484" lon="17.7386793">
        <ele>51.5679</ele>
        <time>2012-03-27T15:58:36Z</time>
      </trkpt>
      <trkpt lat="59.981279" lon="17.7387094">
        <ele>52.0486</ele>
        <time>2012-03-27T15:58:40Z</time>
      </trkpt>
      <trkpt lat="59.9812304" lon="17.7387363">
        <ele>51.0872</ele>
        <time>2012-03-27T15:58:43Z</time>
      </trkpt>
      <trkpt lat="59.9811361" lon="17.7387426">
        <ele>50.6066</ele>
        <time>2012-03-27T15:58:50Z</time>
      </trkpt>
      <trkpt lat="59.981036" lon="17.7387492">
        <ele>53.0098</ele>
        <time>2012-03-27T15:58:56Z</time>
      </trkpt>
      <trkpt lat="59.9810129" lon="17.7387763">
        <ele>53.4905</ele>
        <time>2012-03-27T15:58:57Z</time>
      </trkpt>
      <trkpt lat="59.9809491" lon="17.7387908">
        <ele>53.4905</ele>
        <time>2012-03-27T15:59:01Z</time>
      </trkpt>
      <trkpt lat="59.9808561" lon="17.7387927">
        <ele>52.5292</ele>
        <time>2012-03-27T15:59:07Z</time>
      </trkpt>
      <trkpt lat="59.9808209" lon="17.7388026">
        <ele>50.6066</ele>
        <time>2012-03-27T15:59:10Z</time>
      </trkpt>
      <trkpt lat="59.9807256" lon="17.7388496">
        <ele>48.684</ele>
        <time>2012-03-27T15:59:17Z</time>
      </trkpt>
      <trkpt lat="59.9806614" lon="17.7388817">
        <ele>49.1646</ele>
        <time>2012-03-27T15:59:22Z</time>
      </trkpt>
      <trkpt lat="59.9805989" lon="17.7388736">
        <ele>50.6066</ele>
        <time>2012-03-27T15:59:26Z</time>
      </trkpt>
      <trkpt lat="59.9805379" lon="17.7388592">
        <ele>50.126</ele>
        <time>2012-03-27T15:59:31Z</time>
      </trkpt>
      <trkpt lat="59.980463" lon="17.7388908">
        <ele>50.6066</ele>
        <time>2012-03-27T15:59:36Z</time>
      </trkpt>
      <trkpt lat="59.9804345" lon="17.7388829">
        <ele>50.6066</ele>
        <time>2012-03-27T15:59:38Z</time>
      </trkpt>
      <trkpt lat="59.9804124" lon="17.7388863">
        <ele>50.6066</ele>
        <time>2012-03-27T15:59:40Z</time>
      </trkpt>
      <trkpt lat="59.9802953" lon="17.7389467">
        <ele>51.0872</ele>
        <time>2012-03-27T15:59:48Z</time>
      </trkpt>
      <trkpt lat="59.9802079" lon="17.7389176">
        <ele>49.6453</ele>
        <time>2012-03-27T15:59:54Z</time>
      </trkpt>
      <trkpt lat="59.9801834" lon="17.7389027">
        <ele>48.2034</ele>
        <time>2012-03-27T15:59:56Z</time>
      </trkpt>
      <trkpt lat="59.9800804" lon="17.738841">
        <ele>47.2418</ele>
        <time>2012-03-27T16:00:03Z</time>
      </trkpt>
      <trkpt lat="59.9800446" lon="17.7388493">
        <ele>47.7225</ele>
        <time>2012-03-27T16:00:05Z</time>
      </trkpt>
      <trkpt lat="59.9799297" lon="17.7388538">
        <ele>49.6453</ele>
        <time>2012-03-27T16:00:12Z</time>
      </trkpt>
      <trkpt lat="59.9799001" lon="17.7388475">
        <ele>49.6453</ele>
        <time>2012-03-27T16:00:14Z</time>
      </trkpt>
      <trkpt lat="59.9797986" lon="17.7388886">
        <ele>53.0098</ele>
        <time>2012-03-27T16:00:19Z</time>
      </trkpt>
      <trkpt lat="59.9796749" lon="17.7389578">
        <ele>54.4518</ele>
        <time>2012-03-27T16:00:26Z</time>
      </trkpt>
      <trkpt lat="59.9796486" lon="17.7389663">
        <ele>54.4518</ele>
        <time>2012-03-27T16:00:28Z</time>
      </trkpt>
      <trkpt lat="59.9795644" lon="17.73896">
        <ele>49.6453</ele>
        <time>2012-03-27T16:00:36Z</time>
      </trkpt>
      <trkpt lat="59.9794938" lon="17.7389962">
        <ele>45.7999</ele>
        <time>2012-03-27T16:00:42Z</time>
      </trkpt>
      <trkpt lat="59.979411" lon="17.7390447">
        <ele>43.3966</ele>
        <time>2012-03-27T16:00:48Z</time>
      </trkpt>
      <trkpt lat="59.9793178" lon="17.7390918">
        <ele>41.9547</ele>
        <time>2012-03-27T16:00:55Z</time>
      </trkpt>
      <trkpt lat="59.9792377" lon="17.7391498">
        <ele>42.4354</ele>
        <time>2012-03-27T16:01:01Z</time>
      </trkpt>
      <trkpt lat="59.9791494" lon="17.7392083">
        <ele>42.916</ele>
        <time>2012-03-27T16:01:07Z</time>
      </trkpt>
      <trkpt lat="59.9790664" lon="17.7392404">
        <ele>42.916</ele>
        <time>2012-03-27T16:01:13Z</time>
      </trkpt>
      <trkpt lat="59.9789647" lon="17.7392998">
        <ele>43.3966</ele>
        <time>2012-03-27T16:01:20Z</time>
      </trkpt>
      <trkpt lat="59.9788875" lon="17.7393612">
        <ele>43.3966</ele>
        <time>2012-03-27T16:01:25Z</time>
      </trkpt>
      <trkpt lat="59.9788121" lon="17.7393593">
        <ele>42.916</ele>
        <time>2012-03-27T16:01:30Z</time>
      </trkpt>
      <trkpt lat="59.9787354" lon="17.739347">
        <ele>42.916</ele>
        <time>2012-03-27T16:01:36Z</time>
      </trkpt>
      <trkpt lat="59.978672" lon="17.7393428">
        <ele>43.3966</ele>
        <time>2012-03-27T16:01:41Z</time>
      </trkpt>
      <trkpt lat="59.9786569" lon="17.7393455">
        <ele>43.3966</ele>
        <time>2012-03-27T16:01:42Z</time>
      </trkpt>
      <trkpt lat="59.9786119" lon="17.7393527">
        <ele>43.8773</ele>
        <time>2012-03-27T16:01:45Z</time>
      </trkpt>
      <trkpt lat="59.9785277" lon="17.7393739">
        <ele>41.9547</ele>
        <time>2012-03-27T16:01:51Z</time>
      </trkpt>
      <trkpt lat="59.9784619" lon="17.7393573">
        <ele>39.5513</ele>
        <time>2012-03-27T16:01:56Z</time>
      </trkpt>
      <trkpt lat="59.9783681" lon="17.7393471">
        <ele>38.1094</ele>
        <time>2012-03-27T16:02:03Z</time>
      </trkpt>
      <trkpt lat="59.9782787" lon="17.7393242">
        <ele>38.1094</ele>
        <time>2012-03-27T16:02:09Z</time>
      </trkpt>
      <trkpt lat="59.9781958" lon="17.7393181">
        <ele>39.5513</ele>
        <time>2012-03-27T16:02:14Z</time>
      </trkpt>
      <trkpt lat="59.9781219" lon="17.7392735">
        <ele>38.1094</ele>
        <time>2012-03-27T16:02:20Z</time>
      </trkpt>
      <trkpt lat="59.9780311" lon="17.7392192">
        <ele>36.6675</ele>
        <time>2012-03-27T16:02:27Z</time>
      </trkpt>
      <trkpt lat="59.977928" lon="17.7391486">
        <ele>35.7061</ele>
        <time>2012-03-27T16:02:35Z</time>
      </trkpt>
      <trkpt lat="59.9778167" lon="17.7390896">
        <ele>36.1868</ele>
        <time>2012-03-27T16:02:43Z</time>
      </trkpt>
      <trkpt lat="59.977724" lon="17.7390689">
        <ele>36.1868</ele>
        <time>2012-03-27T16:02:49Z</time>
      </trkpt>
      <trkpt lat="59.9776724" lon="17.739073">
        <ele>37.1481</ele>
        <time>2012-03-27T16:02:52Z</time>
      </trkpt>
      <trkpt lat="59.9775773" lon="17.7390591">
        <ele>37.1481</ele>
        <time>2012-03-27T16:02:59Z</time>
      </trkpt>
      <trkpt lat="59.9775027" lon="17.7390768">
        <ele>36.6675</ele>
        <time>2012-03-27T16:03:04Z</time>
      </trkpt>
      <trkpt lat="59.9774437" lon="17.7390871">
        <ele>36.6675</ele>
        <time>2012-03-27T16:03:08Z</time>
      </trkpt>
      <trkpt lat="59.977414" lon="17.7390959">
        <ele>36.6675</ele>
        <time>2012-03-27T16:03:10Z</time>
      </trkpt>
      <trkpt lat="59.9773174" lon="17.7391263">
        <ele>37.1481</ele>
        <time>2012-03-27T16:03:18Z</time>
      </trkpt>
      <trkpt lat="59.9772804" lon="17.7391431">
        <ele>37.1481</ele>
        <time>2012-03-27T16:03:21Z</time>
      </trkpt>
      <trkpt lat="59.977195" lon="17.7392549">
        <ele>39.0707</ele>
        <time>2012-03-27T16:03:28Z</time>
      </trkpt>
      <trkpt lat="59.9771671" lon="17.7392957">
        <ele>38.5901</ele>
        <time>2012-03-27T16:03:30Z</time>
      </trkpt>
      <trkpt lat="59.9770832" lon="17.739332">
        <ele>37.6287</ele>
        <time>2012-03-27T16:03:36Z</time>
      </trkpt>
      <trkpt lat="59.9770215" lon="17.7393774">
        <ele>37.6287</ele>
        <time>2012-03-27T16:03:40Z</time>
      </trkpt>
      <trkpt lat="59.9768802" lon="17.7394486">
        <ele>38.5901</ele>
        <time>2012-03-27T16:03:49Z</time>
      </trkpt>
      <trkpt lat="59.9767675" lon="17.7394698">
        <ele>38.1094</ele>
        <time>2012-03-27T16:03:57Z</time>
      </trkpt>
      <trkpt lat="59.97669" lon="17.7395078">
        <ele>38.5901</ele>
        <time>2012-03-27T16:04:03Z</time>
      </trkpt>
      <trkpt lat="59.9766621" lon="17.7395176">
        <ele>38.1094</ele>
        <time>2012-03-27T16:04:05Z</time>
      </trkpt>
      <trkpt lat="59.9765796" lon="17.7395983">
        <ele>37.1481</ele>
        <time>2012-03-27T16:04:12Z</time>
      </trkpt>
      <trkpt lat="59.9765315" lon="17.7396649">
        <ele>37.1481</ele>
        <time>2012-03-27T16:04:16Z</time>
      </trkpt>
      <trkpt lat="59.976429" lon="17.7397879">
        <ele>37.6287</ele>
        <time>2012-03-27T16:04:24Z</time>
      </trkpt>
      <trkpt lat="59.976347" lon="17.7399491">
        <ele>38.5901</ele>
        <time>2012-03-27T16:04:32Z</time>
      </trkpt>
      <trkpt lat="59.9762923" lon="17.7400998">
        <ele>39.0707</ele>
        <time>2012-03-27T16:04:38Z</time>
      </trkpt>
      <trkpt lat="59.9762485" lon="17.7402563">
        <ele>40.5128</ele>
        <time>2012-03-27T16:04:44Z</time>
      </trkpt>
      <trkpt lat="59.9762382" lon="17.7402969">
        <ele>40.9934</ele>
        <time>2012-03-27T16:04:46Z</time>
      </trkpt>
      <trkpt lat="59.976206" lon="17.7404858">
        <ele>43.3966</ele>
        <time>2012-03-27T16:04:54Z</time>
      </trkpt>
      <trkpt lat="59.9761937" lon="17.7405302">
        <ele>43.3966</ele>
        <time>2012-03-27T16:04:56Z</time>
      </trkpt>
      <trkpt lat="59.9761224" lon="17.7407072">
        <ele>43.3966</ele>
        <time>2012-03-27T16:05:04Z</time>
      </trkpt>
      <trkpt lat="59.9760881" lon="17.7408435">
        <ele>43.3966</ele>
        <time>2012-03-27T16:05:10Z</time>
      </trkpt>
      <trkpt lat="59.9760736" lon="17.7409408">
        <ele>43.3966</ele>
        <time>2012-03-27T16:05:14Z</time>
      </trkpt>
      <trkpt lat="59.9760202" lon="17.7410942">
        <ele>42.916</ele>
        <time>2012-03-27T16:05:20Z</time>
      </trkpt>
      <trkpt lat="59.9759726" lon="17.7412451">
        <ele>41.9547</ele>
        <time>2012-03-27T16:05:26Z</time>
      </trkpt>
      <trkpt lat="59.9759565" lon="17.7413264">
        <ele>41.9547</ele>
        <time>2012-03-27T16:05:29Z</time>
      </trkpt>
      <trkpt lat="59.9759435" lon="17.7413645">
        <ele>41.474</ele>
        <time>2012-03-27T16:05:31Z</time>
      </trkpt>
      <trkpt lat="59.9758941" lon="17.7416443">
        <ele>40.0321</ele>
        <time>2012-03-27T16:05:40Z</time>
      </trkpt>
      <trkpt lat="59.9758853" lon="17.7416751">
        <ele>39.5513</ele>
        <time>2012-03-27T16:05:41Z</time>
      </trkpt>
      <trkpt lat="59.9758621" lon="17.7417789">
        <ele>39.0707</ele>
        <time>2012-03-27T16:05:46Z</time>
      </trkpt>
      <trkpt lat="59.9758223" lon="17.7419778">
        <ele>39.0707</ele>
        <time>2012-03-27T16:05:54Z</time>
      </trkpt>
      <trkpt lat="59.9757861" lon="17.74212">
        <ele>40.9934</ele>
        <time>2012-03-27T16:06:01Z</time>
      </trkpt>
      <trkpt lat="59.975756" lon="17.7422225">
        <ele>41.474</ele>
        <time>2012-03-27T16:06:05Z</time>
      </trkpt>
      <trkpt lat="59.9757378" lon="17.7423104">
        <ele>41.474</ele>
        <time>2012-03-27T16:06:08Z</time>
      </trkpt>
      <trkpt lat="59.975702" lon="17.7424378">
        <ele>42.916</ele>
        <time>2012-03-27T16:06:12Z</time>
      </trkpt>
      <trkpt lat="59.9756861" lon="17.742466">
        <ele>42.4354</ele>
        <time>2012-03-27T16:06:14Z</time>
      </trkpt>
      <trkpt lat="59.9756458" lon="17.7424208">
        <ele>42.916</ele>
        <time>2012-03-27T16:06:19Z</time>
      </trkpt>
      <trkpt lat="59.97567" lon="17.7422363">
        <ele>41.9547</ele>
        <time>2012-03-27T16:06:26Z</time>
      </trkpt>
      <trkpt lat="59.9756974" lon="17.7420573">
        <ele>41.9547</ele>
        <time>2012-03-27T16:06:33Z</time>
      </trkpt>
      <trkpt lat="59.9757347" lon="17.7418911">
        <ele>40.9934</ele>
        <time>2012-03-27T16:06:40Z</time>
      </trkpt>
      <trkpt lat="59.9757756" lon="17.7417202">
        <ele>40.9934</ele>
        <time>2012-03-27T16:06:47Z</time>
      </trkpt>
      <trkpt lat="59.9758467" lon="17.7415139">
        <ele>38.5901</ele>
        <time>2012-03-27T16:06:56Z</time>
      </trkpt>
      <trkpt lat="59.9759015" lon="17.7412937">
        <ele>37.6287</ele>
        <time>2012-03-27T16:07:04Z</time>
      </trkpt>
      <trkpt lat="59.9759393" lon="17.7411958">
        <ele>37.6287</ele>
        <time>2012-03-27T16:07:08Z</time>
      </trkpt>
      <trkpt lat="59.9759596" lon="17.7411006">
        <ele>36.6675</ele>
        <time>2012-03-27T16:07:12Z</time>
      </trkpt>
      <trkpt lat="59.9760105" lon="17.7409415">
        <ele>35.7061</ele>
        <time>2012-03-27T16:07:19Z</time>
      </trkpt>
      <trkpt lat="59.9760171" lon="17.7409213">
        <ele>35.2255</ele>
        <time>2012-03-27T16:07:20Z</time>
      </trkpt>
      <trkpt lat="59.9760697" lon="17.7407819">
        <ele>35.7061</ele>
        <time>2012-03-27T16:07:26Z</time>
      </trkpt>
      <trkpt lat="59.9761236" lon="17.7406131">
        <ele>35.2255</ele>
        <time>2012-03-27T16:07:33Z</time>
      </trkpt>
      <trkpt lat="59.9761847" lon="17.7404391">
        <ele>35.2255</ele>
        <time>2012-03-27T16:07:41Z</time>
      </trkpt>
      <trkpt lat="59.976235" lon="17.7402954">
        <ele>37.1481</ele>
        <time>2012-03-27T16:07:47Z</time>
      </trkpt>
      <trkpt lat="59.9762865" lon="17.7401177">
        <ele>38.5901</ele>
        <time>2012-03-27T16:07:54Z</time>
      </trkpt>
      <trkpt lat="59.9763569" lon="17.7399205">
        <ele>37.6287</ele>
        <time>2012-03-27T16:08:03Z</time>
      </trkpt>
      <trkpt lat="59.9764299" lon="17.7397613">
        <ele>36.1868</ele>
        <time>2012-03-27T16:08:11Z</time>
      </trkpt>
      <trkpt lat="59.97652" lon="17.7396382">
        <ele>35.2255</ele>
        <time>2012-03-27T16:08:19Z</time>
      </trkpt>
      <trkpt lat="59.9765526" lon="17.7395912">
        <ele>35.7061</ele>
        <time>2012-03-27T16:08:22Z</time>
      </trkpt>
      <trkpt lat="59.9766064" lon="17.7394232">
        <ele>40.5128</ele>
        <time>2012-03-27T16:08:28Z</time>
      </trkpt>
      <trkpt lat="59.9767059" lon="17.7393349">
        <ele>43.8773</ele>
        <time>2012-03-27T16:08:35Z</time>
      </trkpt>
      <trkpt lat="59.9768096" lon="17.7392802">
        <ele>46.2806</ele>
        <time>2012-03-27T16:08:43Z</time>
      </trkpt>
      <trkpt lat="59.9768972" lon="17.7392684">
        <ele>44.8386</ele>
        <time>2012-03-27T16:08:50Z</time>
      </trkpt>
      <trkpt lat="59.9770075" lon="17.7392368">
        <ele>40.5128</ele>
        <time>2012-03-27T16:08:59Z</time>
      </trkpt>
      <trkpt lat="59.9770784" lon="17.7392035">
        <ele>38.1094</ele>
        <time>2012-03-27T16:09:05Z</time>
      </trkpt>
      <trkpt lat="59.9771552" lon="17.7391672">
        <ele>35.7061</ele>
        <time>2012-03-27T16:09:11Z</time>
      </trkpt>
      <trkpt lat="59.9771961" lon="17.7391361">
        <ele>33.3029</ele>
        <time>2012-03-27T16:09:15Z</time>
      </trkpt>
      <trkpt lat="59.9772778" lon="17.7390856">
        <ele>31.8607</ele>
        <time>2012-03-27T16:09:22Z</time>
      </trkpt>
      <trkpt lat="59.9773883" lon="17.7390171">
        <ele>32.8223</ele>
        <time>2012-03-27T16:09:30Z</time>
      </trkpt>
      <trkpt lat="59.977472" lon="17.7389894">
        <ele>33.7834</ele>
        <time>2012-03-27T16:09:36Z</time>
      </trkpt>
      <trkpt lat="59.9776406" lon="17.7389854">
        <ele>36.1868</ele>
        <time>2012-03-27T16:09:46Z</time>
      </trkpt>
      <trkpt lat="59.9777317" lon="17.7390101">
        <ele>37.1481</ele>
        <time>2012-03-27T16:09:52Z</time>
      </trkpt>
      <trkpt lat="59.9778372" lon="17.7390554">
        <ele>34.7449</ele>
        <time>2012-03-27T16:10:00Z</time>
      </trkpt>
      <trkpt lat="59.9779338" lon="17.739097">
        <ele>34.7449</ele>
        <time>2012-03-27T16:10:07Z</time>
      </trkpt>
      <trkpt lat="59.9780371" lon="17.7391522">
        <ele>35.7061</ele>
        <time>2012-03-27T16:10:14Z</time>
      </trkpt>
      <trkpt lat="59.9781255" lon="17.739189">
        <ele>33.7834</ele>
        <time>2012-03-27T16:10:20Z</time>
      </trkpt>
      <trkpt lat="59.9782151" lon="17.739223">
        <ele>32.8223</ele>
        <time>2012-03-27T16:10:27Z</time>
      </trkpt>
      <trkpt lat="59.978287" lon="17.7392498">
        <ele>33.3029</ele>
        <time>2012-03-27T16:10:33Z</time>
      </trkpt>
      <trkpt lat="59.978385" lon="17.7392549">
        <ele>30.4188</ele>
        <time>2012-03-27T16:10:41Z</time>
      </trkpt>
      <trkpt lat="59.9784612" lon="17.7392769">
        <ele>30.4188</ele>
        <time>2012-03-27T16:10:47Z</time>
      </trkpt>
      <trkpt lat="59.9784717" lon="17.7392795">
        <ele>30.4188</ele>
        <time>2012-03-27T16:10:48Z</time>
      </trkpt>
      <trkpt lat="59.9785004" lon="17.7392885">
        <ele>29.9381</ele>
        <time>2012-03-27T16:10:50Z</time>
      </trkpt>
      <trkpt lat="59.978604" lon="17.7392822">
        <ele>28.0155</ele>
        <time>2012-03-27T16:10:56Z</time>
      </trkpt>
      <trkpt lat="59.9786479" lon="17.7393124">
        <ele>27.5349</ele>
        <time>2012-03-27T16:10:59Z</time>
      </trkpt>
      <trkpt lat="59.978709" lon="17.7392968">
        <ele>28.0155</ele>
        <time>2012-03-27T16:11:03Z</time>
      </trkpt>
      <trkpt lat="59.9787903" lon="17.7393673">
        <ele>28.4962</ele>
        <time>2012-03-27T16:11:09Z</time>
      </trkpt>
      <trkpt lat="59.9788536" lon="17.7394698">
        <ele>28.0155</ele>
        <time>2012-03-27T16:11:15Z</time>
      </trkpt>
      <trkpt lat="59.9788791" lon="17.7395201">
        <ele>26.5736</ele>
        <time>2012-03-27T16:11:18Z</time>
      </trkpt>
      <trkpt lat="59.978959" lon="17.7396393">
        <ele>31.3801</ele>
        <time>2012-03-27T16:11:24Z</time>
      </trkpt>
      <trkpt lat="59.9789709" lon="17.7397711">
        <ele>39.0707</ele>
        <time>2012-03-27T16:11:30Z</time>
      </trkpt>
      <trkpt lat="59.978982" lon="17.7399345">
        <ele>42.916</ele>
        <time>2012-03-27T16:11:37Z</time>
      </trkpt>
      <trkpt lat="59.978978" lon="17.7399521">
        <ele>43.3966</ele>
        <time>2012-03-27T16:11:38Z</time>
      </trkpt>
    </trkseg>
  </trk>
</gpx>